Airfield :
LOGIN :

Register | Disclaimer

   EN    FR    IT 

 










Legend :    VFR   Marginal VFR   IFR   Intensive IFR   Very Intensive IFR
Visi :
Ceiling :
>= 8 km
>= 3000ft
5 to 8 km
1000 to 3000 ft
1500m to 5 km
500 to 1000 ft
800 to 1500m
200 to 500 ft
< 800m
< 200 ft
Symbols :   Thunderstorms  Fog  Heavy snow  Heavy precipitations  Wind > 20 kt
SIGMETs :     Misc.  Thunderstorms  Icing  Turbulence  Mountain Waves  Volcanic Ashes







- Airport Elevation : 65 ft
- IATA code : PMO


LICJ - Palermo Punta Raisi

CURRENT METAR :
  • 201320Z 06015KT 9999 FEW025 13/08 Q1023

EXPIRED METARs :
  • 201250Z 06014KT 9999 FEW025 14/08 Q1023
  • 201220Z 06015KT 9999 FEW025 13/08 Q1023
  • 201150Z 05013KT 9999 FEW025 13/08 Q1024
  • 201120Z 06012KT 9999 FEW030 14/08 Q1024
  • 201050Z 04008KT 320V100 9999 FEW030 13/08 Q1024
  • 201020Z 29003KT CAVOK 13/08 Q1024

TAF TAF LICJ
Valid from the 20 at 12:00 until the 21 at 12:00 UTC


201100Z 2012/2112 VRB05KT 9999 FEW040
BECMG 2012/2013 06010KT
BECMG 2016/2018 VRB05KT
No reported NOTAMs for that airfield.
1 SIGMET reported for the Roma FIR (LIRR) :
 
Volcanic ashes
LIRR SIGMET 2 VALID 201153/201815 LIIB
LIRR ROMA FIR VA ERUPTION MT ETNA PSN N3744 E01500 VA CLD OBS AT 1200Z WI N3704 E01500 - N3719 E01430 - N3749 E01500 - N3745 E01504 - N3704 E01500 MOV S 05KT SFC/FL160 NC FCST AT 1800Z WI N3649 E01500 - N3704 E01434 - N3749 E01500 - N3649 E01500=



MET'MAP, your aeronautical weather chart ! - Copyright ORBIFLY December 2007 - Disclaimer

ORBIFLY MET'MAP TEAM :

Programming & Development : Alexandra Zaïnal
Concept & Development : Baudouin d'Aumeries
Co-Development & Prog : Marc-Olivier Méhu
Technical & hardware support : Manuel Goepfert

Contact : metmap@orbifly.com




SOURCES & CREDITS :

   NOAA